Terminal Aerodrome Forecast
Issued by NWS Sioux Falls, SD

Home | Current Version | Previous Version | Text Only | Print | Product List | Glossary On
Versions: 1 2 3 4 5 6 7 8 9 10 11 12 13 14 15 16 17
000
FTUS43 KFSD 060520
TAFHON
TAF
KHON 060520Z 0606/0706 36015G21KT P6SM -SHRA SCT018 OVC100
     FM060900 36012KT 5SM -RA BR BKN015
     FM061500 36015G21KT P6SM SCT015 BKN100
     FM061800 36016G23KT P6SM SCT030
     FM070100 36009KT P6SM SKC=

USA.gov is the U.S. government's official web portal to all federal, state and local government web resources and services.